Time;durP1;ratioP1;P1;durP2;ratioP2;P2;SDS_P1;SDS_P2;PMS_P1;PMS_P2;Temp;Humidity;BMP_temperature;BMP_pressure;BME280_temperature;BME280_humidity;BME280_pressure;Samples;Min_cycle;Max_cycle;Signal;HPM_P1;HPM_P2
2022/08/23 00:01:14;;;;;;;3.77;2.00;;;;;;;;;;5072138;28;20195;-50
2022/08/23 00:03:42;;;;;;;4.23;1.90;;;;;;;;;;5072238;28;20238;-52
2022/08/23 00:06:08;;;;;;;4.17;2.00;;;;;;;;;;5073536;28;20198;-50
2022/08/23 00:08:35;;;;;;;2.97;1.80;;;;;;;;;;5073397;28;20515;-50
2022/08/23 00:11:01;;;;;;;4.37;2.10;;;;;;;;;;5073306;28;20300;-50
2022/08/23 00:13:28;;;;;;;4.33;2.10;;;;;;;;;;5073481;28;20196;-50
2022/08/23 00:15:54;;;;;;;5.23;2.27;;;;;;;;;;5073395;28;20257;-49
2022/08/23 00:18:20;;;;;;;5.27;2.20;;;;;;;;;;5073556;28;20616;-50
2022/08/23 00:20:48;;;;;;;4.23;2.17;;;;;;;;;;5073424;28;20283;-50
2022/08/23 00:23:14;;;;;;;8.00;2.60;;;;;;;;;;5073483;28;20249;-49
2022/08/23 00:25:40;;;;;;;3.03;1.90;;;;;;;;;;5073310;28;20650;-50
2022/08/23 00:28:07;;;;;;;4.93;2.13;;;;;;;;;;5073371;28;20198;-50
2022/08/23 00:30:33;;;;;;;4.43;2.13;;;;;;;;;;5073069;28;20200;-49
2022/08/23 00:32:59;;;;;;;4.23;2.10;;;;;;;;;;5073290;28;20241;-50
2022/08/23 00:35:26;;;;;;;4.17;2.00;;;;;;;;;;5073286;28;20202;-50
2022/08/23 00:37:54;;;;;;;3.00;1.93;;;;;;;;;;5072630;28;20570;-50
2022/08/23 00:40:19;;;;;;;2.63;1.90;;;;;;;;;;5072297;28;20382;-50
2022/08/23 00:48:21;;;;;;;4.67;2.40;;;;;;;;;;5073091;28;20213;-49
2022/08/23 00:50:50;;;;;;;3.30;2.37;;;;;;;;;;5072871;28;20302;-49
2022/08/23 00:53:19;;;;;;;3.90;2.00;;;;;;;;;;5072828;28;20226;-50
2022/08/23 00:55:46;;;;;;;3.17;1.90;;;;;;;;;;5072722;28;20203;-49
2022/08/23 00:58:13;;;;;;;6.77;2.30;;;;;;;;;;5072947;28;20203;-50
2022/08/23 01:00:39;;;;;;;6.17;2.40;;;;;;;;;;5072527;28;20254;-50
2022/08/23 01:03:08;;;;;;;3.63;2.33;;;;;;;;;;5072530;28;20245;-50
2022/08/23 01:05:37;;;;;;;4.77;2.50;;;;;;;;;;5072473;28;20195;-49
2022/08/23 01:08:03;;;;;;;3.77;1.97;;;;;;;;;;5072507;28;20219;-50
2022/08/23 01:10:32;;;;;;;6.10;2.20;;;;;;;;;;5072046;28;20721;-49
2022/08/23 01:13:00;;;;;;;4.43;2.00;;;;;;;;;;5071567;28;20200;-50
2022/08/23 01:15:28;;;;;;;4.20;2.00;;;;;;;;;;5072414;28;20726;-50
2022/08/23 01:17:56;;;;;;;5.17;2.20;;;;;;;;;;5072544;28;20229;-50
2022/08/23 01:20:24;;;;;;;7.00;2.20;;;;;;;;;;5072080;28;20238;-50
2022/08/23 01:22:53;;;;;;;3.47;1.87;;;;;;;;;;5072137;28;20254;-49
2022/08/23 01:25:21;;;;;;;3.83;2.07;;;;;;;;;;5072276;28;20198;-50
2022/08/23 01:27:48;;;;;;;3.70;2.33;;;;;;;;;;5071419;28;20224;-50
2022/08/23 01:30:16;;;;;;;4.47;2.10;;;;;;;;;;5072328;28;20251;-50
2022/08/23 01:32:43;;;;;;;3.63;1.87;;;;;;;;;;5071808;28;20547;-50
2022/08/23 01:35:10;;;;;;;3.87;2.23;;;;;;;;;;5071902;28;20199;-50
2022/08/23 01:37:36;;;;;;;3.23;2.30;;;;;;;;;;5070875;28;20195;-50
2022/08/23 01:40:02;;;;;;;2.50;1.90;;;;;;;;;;5071934;28;20203;-49
2022/08/23 01:42:30;;;;;;;3.03;2.03;;;;;;;;;;5071584;28;20689;-49
2022/08/23 01:44:56;;;;;;;3.77;2.20;;;;;;;;;;5072165;28;20250;-50
2022/08/23 01:47:22;;;;;;;4.17;2.20;;;;;;;;;;5071980;28;20188;-50
2022/08/23 01:49:48;;;;;;;4.03;2.30;;;;;;;;;;5071824;28;20271;-50
2022/08/23 01:52:14;;;;;;;4.53;2.40;;;;;;;;;;5071935;28;20704;-50
2022/08/23 01:54:40;;;;;;;3.70;2.27;;;;;;;;;;5071826;28;20556;-50
2022/08/23 01:57:07;;;;;;;3.57;2.37;;;;;;;;;;5071435;28;20249;-49
2022/08/23 01:59:34;;;;;;;5.47;2.40;;;;;;;;;;5071585;28;20198;-51
2022/08/23 02:02:00;;;;;;;4.37;2.23;;;;;;;;;;5071703;28;20204;-51
2022/08/23 02:04:26;;;;;;;4.13;2.30;;;;;;;;;;5071595;28;20207;-50
2022/08/23 02:06:52;;;;;;;4.47;2.27;;;;;;;;;;5071351;28;20697;-49
2022/08/23 02:09:18;;;;;;;3.63;2.40;;;;;;;;;;5071495;28;20235;-51
2022/08/23 02:11:44;;;;;;;4.80;2.70;;;;;;;;;;5071401;28;20235;-49
2022/08/23 02:14:12;;;;;;;4.47;2.37;;;;;;;;;;5071064;28;20192;-50
2022/08/23 02:16:40;;;;;;;4.17;2.20;;;;;;;;;;5071003;28;20204;-50
2022/08/23 02:19:08;;;;;;;3.67;2.00;;;;;;;;;;5071528;28;20191;-50
2022/08/23 02:21:34;;;;;;;3.67;2.27;;;;;;;;;;5071302;28;20195;-49
2022/08/23 02:24:03;;;;;;;4.73;2.50;;;;;;;;;;5071510;28;20231;-49
2022/08/23 02:26:30;;;;;;;3.63;2.30;;;;;;;;;;5071392;28;20203;-50
2022/08/23 02:28:56;;;;;;;3.83;2.23;;;;;;;;;;5070781;28;20715;-50
2022/08/23 02:31:22;;;;;;;4.70;2.20;;;;;;;;;;5071736;28;20206;-49
2022/08/23 02:33:49;;;;;;;4.07;2.70;;;;;;;;;;5071293;28;20191;-50
2022/08/23 02:36:16;;;;;;;6.70;2.70;;;;;;;;;;5071602;28;20195;-50
2022/08/23 02:38:42;;;;;;;4.57;2.33;;;;;;;;;;5070372;28;20487;-50
2022/08/23 02:41:08;;;;;;;3.90;2.30;;;;;;;;;;5073372;28;20403;-50
2022/08/23 02:43:36;;;;;;;4.33;2.40;;;;;;;;;;5073937;28;20219;-50
2022/08/23 02:46:02;;;;;;;3.77;1.90;;;;;;;;;;5075075;28;20586;-50
2022/08/23 02:48:31;;;;;;;5.67;2.30;;;;;;;;;;5075415;28;20195;-49
2022/08/23 02:50:59;;;;;;;4.90;2.43;;;;;;;;;;5075424;28;20253;-50
2022/08/23 02:53:25;;;;;;;4.13;2.53;;;;;;;;;;5075318;28;20540;-50
2022/08/23 02:55:51;;;;;;;6.50;2.37;;;;;;;;;;5075256;28;20253;-50
2022/08/23 02:58:17;;;;;;;4.00;2.40;;;;;;;;;;5074779;28;20199;-49
2022/08/23 03:00:46;;;;;;;4.63;2.40;;;;;;;;;;5075055;28;20203;-49
2022/08/23 03:03:12;;;;;;;3.07;2.17;;;;;;;;;;5075075;28;20310;-50
2022/08/23 03:05:38;;;;;;;4.33;2.30;;;;;;;;;;5074910;28;20721;-50
2022/08/23 03:08:05;;;;;;;6.43;2.60;;;;;;;;;;5074826;28;20261;-50
2022/08/23 03:10:31;;;;;;;4.33;2.77;;;;;;;;;;5074648;28;20333;-50
2022/08/23 03:12:57;;;;;;;3.13;2.30;;;;;;;;;;5074303;28;20221;-49
2022/08/23 03:15:23;;;;;;;5.07;2.30;;;;;;;;;;5074730;28;20195;-49
2022/08/23 03:17:50;;;;;;;;;;;;;;;;;;5075105;28;20430;-50
2022/08/23 03:20:16;;;;;;;;;;;;;;;;;;5075186;28;19911;-50
2022/08/23 03:22:42;;;;;;;;;;;;;;;;;;5075016;28;20358;-51
2022/08/23 03:25:07;;;;;;;;;;;;;;;;;;5074352;28;19904;-49
2022/08/23 03:27:33;;;;;;;;;;;;;;;;;;5074737;28;19947;-50
2022/08/23 03:29:59;;;;;;;;;;;;;;;;;;5072783;28;19912;-50
2022/08/23 03:32:25;;;;;;;;;;;;;;;;;;5073776;28;19901;-49
2022/08/23 03:34:51;;;;;;;;;;;;;;;;;;5074912;28;19904;-50
2022/08/23 03:37:17;;;;;;;;;;;;;;;;;;5074723;28;20282;-48
2022/08/23 03:39:43;;;;;;;;;;;;;;;;;;5074609;28;19901;-50
2022/08/23 03:42:08;;;;;;;;;;;;;;;;;;5074811;28;20423;-50
2022/08/23 03:44:34;;;;;;;;;;;;;;;;;;5074194;28;19936;-49
2022/08/23 03:47:02;;;;;;;4.90;2.83;;;;;;;;;;5073174;28;20396;-49
2022/08/23 03:49:28;;;;;;;9.07;2.53;;;;;;;;;;5073954;28;20202;-50
2022/08/23 03:51:53;;;;;;;;;;;;;;;;;;5073678;28;20131;-50
2022/08/23 03:54:19;;;;;;;4.40;2.40;;;;;;;;;;5072646;28;20459;-50
2022/08/23 03:56:50;;;;;;;5.30;2.60;;;;;;;;;;5071941;28;20407;-50
2022/08/23 03:59:16;;;;;;;;;;;;;;;;;;5074271;28;20044;-50
2022/08/23 04:01:42;;;;;;;;;;;;;;;;;;5073406;28;19908;-49
2022/08/23 04:04:08;;;;;;;;;;;;;;;;;;5074170;28;19999;-50
2022/08/23 04:06:34;;;;;;;;;;;;;;;;;;5074190;28;19943;-49
2022/08/23 04:09:00;;;;;;;;;;;;;;;;;;5074240;28;19908;-50
2022/08/23 04:11:26;;;;;;;;;;;;;;;;;;5073564;28;20335;-50
2022/08/23 04:13:52;;;;;;;;;;;;;;;;;;5073630;28;19905;-50
2022/08/23 04:16:18;;;;;;;;;;;;;;;;;;5074029;28;20275;-50
2022/08/23 04:18:44;;;;;;;;;;;;;;;;;;5073547;28;19911;-50
2022/08/23 04:21:10;;;;;;;;;;;;;;;;;;5074058;28;19908;-50
2022/08/23 04:23:36;;;;;;;;;;;;;;;;;;5073802;28;19919;-50
2022/08/23 04:26:02;;;;;;;;;;;;;;;;;;5073991;28;19993;-50
2022/08/23 04:28:27;;;;;;;;;;;;;;;;;;5073854;28;20366;-49
2022/08/23 04:30:54;;;;;;;;;;;;;;;;;;5073966;28;19948;-50
2022/08/23 04:33:19;;;;;;;;;;;;;;;;;;5073810;28;20007;-50
2022/08/23 04:35:47;;;;;;;5.60;2.80;;;;;;;;;;5071781;28;20440;-49
2022/08/23 04:38:13;;;;;;;5.17;2.70;;;;;;;;;;5070850;28;20434;-49
2022/08/23 04:43:26;;;;;;;4.63;2.67;;;;;;;;;;5071882;28;20854;-50
2022/08/23 04:45:52;;;;;;;4.57;2.30;;;;;;;;;;5071653;28;20404;-50
2022/08/23 04:48:18;;;;;;;4.90;2.40;;;;;;;;;;5071675;28;20412;-50
2022/08/23 04:50:44;;;;;;;4.03;2.23;;;;;;;;;;5071457;28;20575;-50
2022/08/23 04:53:11;;;;;;;4.10;2.30;;;;;;;;;;5071616;28;20793;-50
2022/08/23 04:55:37;;;;;;;5.40;2.60;;;;;;;;;;5071498;28;20408;-50
2022/08/23 04:58:03;;;;;;;4.75;2.55;;;;;;;;;;5071703;28;20403;-50
2022/08/23 05:00:29;;;;;;;4.70;2.50;;;;;;;;;;5071416;28;20629;-50
2022/08/23 05:02:55;;;;;;;5.82;2.60;;;;;;;;;;5070301;28;20421;-50
2022/08/23 05:05:22;;;;;;;6.60;2.70;;;;;;;;;;5071262;28;20413;-50
2022/08/23 05:07:48;;;;;;;3.97;2.35;;;;;;;;;;5070801;28;20406;-50
2022/08/23 05:10:15;;;;;;;3.85;2.45;;;;;;;;;;5071065;28;20510;-50
2022/08/23 05:12:41;;;;;;;4.50;2.40;;;;;;;;;;5070909;28;20400;-50
2022/08/23 05:15:08;;;;;;;4.17;2.67;;;;;;;;;;5071528;28;20434;-49
2022/08/23 05:17:34;;;;;;;3.55;2.33;;;;;;;;;;5071098;28;20400;-50
2022/08/23 05:20:00;;;;;;;5.60;2.40;;;;;;;;;;5071033;28;20408;-50
2022/08/23 05:22:27;;;;;;;5.30;2.60;;;;;;;;;;5070822;28;20498;-49
2022/08/23 05:24:53;;;;;;;4.53;2.70;;;;;;;;;;5070397;28;20400;-49
2022/08/23 05:27:20;;;;;;;4.15;2.50;;;;;;;;;;5070187;28;20422;-49
2022/08/23 05:29:47;;;;;;;4.83;2.53;;;;;;;;;;5070805;28;20408;-49
2022/08/23 05:32:13;;;;;;;4.35;2.63;;;;;;;;;;5070891;28;20408;-49
2022/08/23 05:34:39;;;;;;;5.65;2.40;;;;;;;;;;5070644;28;20446;-49
2022/08/23 05:37:05;;;;;;;5.80;2.65;;;;;;;;;;5070606;28;20407;-50
2022/08/23 05:39:31;;;;;;;6.03;2.60;;;;;;;;;;5069605;28;20572;-49
2022/08/23 05:41:57;;;;;;;4.80;2.67;;;;;;;;;;5070708;28;20462;-49
2022/08/23 05:44:24;;;;;;;4.32;2.60;;;;;;;;;;5070542;28;20415;-49
2022/08/23 05:46:50;;;;;;;3.30;2.45;;;;;;;;;;5070602;28;20419;-49
2022/08/23 05:49:16;;;;;;;3.97;2.30;;;;;;;;;;5070598;28;20407;-49
2022/08/23 05:51:42;;;;;;;3.33;2.60;;;;;;;;;;5070552;28;20399;-50
2022/08/23 05:54:09;;;;;;;4.30;2.45;;;;;;;;;;5070633;28;20392;-50
2022/08/23 05:56:36;;;;;;;4.20;2.50;;;;;;;;;;5070463;28;20431;-49
2022/08/23 05:59:05;;;;;;;7.68;2.53;;;;;;;;;;5070480;28;20403;-50
2022/08/23 06:01:33;;;;;;;4.43;2.47;;;;;;;;;;5070398;28;20396;-50
2022/08/23 06:03:59;;;;;;;3.72;2.50;;;;;;;;;;5070237;28;20428;-50
2022/08/23 06:06:25;;;;;;;4.20;2.40;;;;;;;;;;5069592;28;20818;-49
2022/08/23 06:08:52;;;;;;;5.28;2.50;;;;;;;;;;5069525;28;20431;-50
2022/08/23 06:11:19;;;;;;;6.15;2.40;;;;;;;;;;5070105;28;20403;-49
2022/08/23 06:13:46;;;;;;;4.22;2.33;;;;;;;;;;5069693;28;20406;-50
2022/08/23 06:16:13;;;;;;;3.60;2.20;;;;;;;;;;5070222;28;20670;-50
2022/08/23 06:18:40;;;;;;;4.75;2.40;;;;;;;;;;5070250;28;20478;-50
2022/08/23 06:21:09;;;;;;;4.35;2.50;;;;;;;;;;5068891;28;20399;-49
2022/08/23 06:23:35;;;;;;;5.43;2.67;;;;;;;;;;5069061;28;20523;-49
2022/08/23 06:26:08;;;;;;;6.22;2.50;;;;;;;;;;5069965;28;20407;-50
2022/08/23 06:28:34;;;;;;;3.97;2.38;;;;;;;;;;5070037;28;20404;-50
2022/08/23 06:31:00;;;;;;;4.85;2.50;;;;;;;;;;5069687;28;20438;-48
2022/08/23 06:33:26;;;;;;;4.15;2.28;;;;;;;;;;5070303;28;20483;-49
2022/08/23 06:36:02;;;;;;;3.70;2.20;;;;;;;;;;5069757;28;20436;-50
2022/08/23 06:38:28;;;;;;;4.80;2.50;;;;;;;;;;5069203;28;20400;-48
2022/08/23 06:40:58;;;;;;;4.78;2.40;;;;;;;;;;5069077;28;20809;-49
2022/08/23 06:43:25;;;;;;;3.53;2.10;;;;;;;;;;5069812;28;20419;-49
2022/08/23 06:45:52;;;;;;;3.92;2.15;;;;;;;;;;5069566;28;20407;-48
2022/08/23 06:48:18;;;;;;;4.35;2.30;;;;;;;;;;5069727;28;20400;-50
2022/08/23 06:50:44;;;;;;;5.50;2.40;;;;;;;;;;5070971;28;20200;-49
2022/08/23 06:53:11;;;;;;;6.40;2.07;;;;;;;;;;5070969;28;20184;-50
2022/08/23 06:55:37;;;;;;;4.50;2.30;;;;;;;;;;5071247;28;20208;-49
2022/08/23 06:58:03;;;;;;;3.63;2.10;;;;;;;;;;5071249;28;20197;-50
2022/08/23 07:00:29;;;;;;;3.33;2.20;;;;;;;;;;5071241;28;20283;-49
2022/08/23 07:02:56;;;;;;;3.67;2.17;;;;;;;;;;5070972;28;20651;-49
2022/08/23 07:05:22;;;;;;;5.10;2.13;;;;;;;;;;5071171;28;20564;-49
2022/08/23 07:07:48;;;;;;;4.23;2.10;;;;;;;;;;5070827;28;20282;-51
2022/08/23 07:10:15;;;;;;;3.57;2.20;;;;;;;;;;5070741;28;20259;-51
2022/08/23 07:12:42;;;;;;;5.73;2.40;;;;;;;;;;5070885;28;20203;-49
2022/08/23 07:15:08;;;;;;;9.53;2.40;;;;;;;;;;5070366;28;20202;-49
2022/08/23 07:17:34;;;;;;;3.83;2.00;;;;;;;;;;5070882;28;20192;-50
2022/08/23 07:20:00;;;;;;;6.13;2.43;;;;;;;;;;5070397;28;20203;-51
2022/08/23 07:22:26;;;;;;;3.63;2.30;;;;;;;;;;5070468;28;20192;-50
2022/08/23 07:24:52;;;;;;;5.83;2.20;;;;;;;;;;5070050;28;20553;-50
2022/08/23 07:27:19;;;;;;;3.83;2.07;;;;;;;;;;5071840;28;20206;-50
2022/08/23 07:29:46;;;;;;;4.10;2.40;;;;;;;;;;5072339;28;20215;-50
2022/08/23 07:32:12;;;;;;;4.03;2.07;;;;;;;;;;5074047;28;20568;-50
2022/08/23 07:34:38;;;;;;;4.10;2.20;;;;;;;;;;5073736;28;20197;-50
2022/08/23 07:37:05;;;;;;;6.23;1.90;;;;;;;;;;5073829;28;20314;-49
2022/08/23 07:39:31;;;;;;;2.87;2.00;;;;;;;;;;5073688;28;20208;-49
2022/08/23 07:41:58;;;;;;;4.17;2.37;;;;;;;;;;5073636;28;20257;-49
2022/08/23 07:44:25;;;;;;;3.50;1.90;;;;;;;;;;5074107;28;20224;-51
2022/08/23 07:46:51;;;;;;;5.90;2.20;;;;;;;;;;5074076;28;20212;-48
2022/08/23 07:49:17;;;;;;;3.60;2.00;;;;;;;;;;5074242;28;20198;-52
2022/08/23 07:51:50;;;;;;;3.50;1.93;;;;;;;;;;5074022;28;20197;-50
2022/08/23 07:54:17;;;;;;;5.07;2.30;;;;;;;;;;5073972;28;20205;-51
2022/08/23 07:56:43;;;;;;;2.57;1.90;;;;;;;;;;5073835;28;20213;-51
2022/08/23 07:59:10;;;;;;;4.40;1.90;;;;;;;;;;5073239;28;20195;-49
2022/08/23 08:01:38;;;;;;;3.50;1.93;;;;;;;;;;5073770;28;20207;-49
2022/08/23 08:04:04;;;;;;;3.33;2.13;;;;;;;;;;5073613;28;20415;-50
2022/08/23 08:06:35;;;;;;;3.87;2.10;;;;;;;;;;5073792;28;20281;-50
2022/08/23 08:09:01;;;;;;;4.80;2.00;;;;;;;;;;5073562;28;20251;-49
2022/08/23 08:11:28;;;;;;;5.43;2.03;;;;;;;;;;5073970;28;20199;-51
2022/08/23 08:13:55;;;;;;;4.63;1.83;;;;;;;;;;5073349;28;20636;-51
2022/08/23 08:16:22;;;;;;;4.17;2.00;;;;;;;;;;5073665;28;20245;-52
2022/08/23 08:18:50;;;;;;;6.20;2.03;;;;;;;;;;5073214;28;20290;-52
2022/08/23 08:21:17;;;;;;;3.70;1.90;;;;;;;;;;5073369;28;20576;-50
2022/08/23 08:23:43;;;;;;;3.30;1.80;;;;;;;;;;5072593;28;20273;-48
2022/08/23 08:26:10;;;;;;;4.33;1.97;;;;;;;;;;5072474;28;20223;-51
2022/08/23 08:28:36;;;;;;;5.23;2.10;;;;;;;;;;5073228;28;20203;-49
2022/08/23 08:31:02;;;;;;;4.87;1.97;;;;;;;;;;5073346;28;20202;-49
2022/08/23 08:33:29;;;;;;;4.77;2.00;;;;;;;;;;5068416;28;20271;-49
2022/08/23 08:35:56;;;;;;;4.53;2.23;;;;;;;;;;5073164;28;20188;-48
2022/08/23 08:38:22;;;;;;;5.33;2.30;;;;;;;;;;5073009;28;20205;-49
2022/08/23 08:40:53;;;;;;;5.80;2.23;;;;;;;;;;5068460;28;20319;-49
2022/08/23 08:43:25;;;;;;;5.47;2.00;;;;;;;;;;5072869;28;20749;-51
2022/08/23 08:45:58;;;;;;;4.00;1.93;;;;;;;;;;5072917;28;20444;-49
2022/08/23 08:48:24;;;;;;;5.30;1.83;;;;;;;;;;5073055;28;20193;-51
2022/08/23 08:50:53;;;;;;;4.27;2.13;;;;;;;;;;5072774;28;20201;-51
2022/08/23 08:53:22;;;;;;;5.90;1.90;;;;;;;;;;5072827;28;20239;-49
2022/08/23 08:55:50;;;;;;;3.00;1.80;;;;;;;;;;5071581;28;20201;-49
2022/08/23 08:58:18;;;;;;;3.17;1.73;;;;;;;;;;5072315;28;20182;-51
2022/08/23 09:00:45;;;;;;;4.13;1.83;;;;;;;;;;5072425;28;20225;-51
2022/08/23 09:03:13;;;;;;;4.30;2.10;;;;;;;;;;5072269;28;20236;-49
2022/08/23 09:05:45;;;;;;;3.60;1.83;;;;;;;;;;5072086;28;20197;-50
2022/08/23 09:08:21;;;;;;;5.97;2.10;;;;;;;;;;5071989;28;20271;-50
2022/08/23 09:10:52;;;;;;;3.87;1.50;;;;;;;;;;5071655;28;20249;-49
2022/08/23 09:13:25;;;;;;;2.83;2.03;;;;;;;;;;5072497;28;20198;-49
2022/08/23 09:15:56;;;;;;;3.97;1.87;;;;;;;;;;5072351;28;20293;-50
2022/08/23 09:18:23;;;;;;;5.13;1.97;;;;;;;;;;5072474;28;20203;-50
2022/08/23 09:20:51;;;;;;;3.77;2.20;;;;;;;;;;5072312;28;20198;-50
2022/08/23 09:23:19;;;;;;;7.20;2.30;;;;;;;;;;5072005;28;20230;-50
2022/08/23 09:25:52;;;;;;;3.73;2.10;;;;;;;;;;5071929;28;20253;-51
2022/08/23 09:28:18;;;;;;;5.13;2.20;;;;;;;;;;5071763;28;20203;-49
2022/08/23 09:30:46;;;;;;;3.77;2.00;;;;;;;;;;5071907;28;20192;-50
2022/08/23 09:33:14;;;;;;;2.63;2.00;;;;;;;;;;5071389;28;20199;-50
2022/08/23 09:35:40;;;;;;;5.03;2.07;;;;;;;;;;5072176;28;20246;-49
2022/08/23 09:38:15;;;;;;;4.73;2.00;;;;;;;;;;5072142;28;20201;-49
2022/08/23 09:40:44;;;;;;;7.00;1.97;;;;;;;;;;5071609;28;20193;-49
2022/08/23 09:43:12;;;;;;;6.47;2.20;;;;;;;;;;5071783;28;20226;-51
2022/08/23 09:45:41;;;;;;;8.60;2.07;;;;;;;;;;5071407;28;20241;-51
2022/08/23 09:48:11;;;;;;;4.27;2.23;;;;;;;;;;5071329;28;20233;-51
2022/08/23 09:50:39;;;;;;;4.83;2.10;;;;;;;;;;5071464;28;20240;-51
2022/08/23 09:53:07;;;;;;;3.40;1.97;;;;;;;;;;5071883;28;20200;-51
2022/08/23 09:55:34;;;;;;;5.40;1.90;;;;;;;;;;5071651;28;20698;-51
2022/08/23 09:58:01;;;;;;;5.70;1.90;;;;;;;;;;5071742;28;20663;-51
2022/08/23 10:00:32;;;;;;;4.53;2.07;;;;;;;;;;5071975;28;20541;-51
2022/08/23 10:03:14;;;;;;;4.03;1.90;;;;;;;;;;5071826;28;20691;-51
2022/08/23 10:05:40;;;;;;;5.30;1.90;;;;;;;;;;5071236;28;20206;-51
2022/08/23 10:08:06;;;;;;;4.33;1.93;;;;;;;;;;5069931;28;20233;-51
2022/08/23 10:10:35;;;;;;;3.27;1.57;;;;;;;;;;5071581;28;20769;-51
2022/08/23 10:13:02;;;;;;;5.57;1.73;;;;;;;;;;5069781;28;20680;-51
2022/08/23 10:15:35;;;;;;;3.97;1.70;;;;;;;;;;5071045;28;20297;-51
2022/08/23 10:18:06;;;;;;;4.07;2.03;;;;;;;;;;5069726;28;20664;-50
2022/08/23 10:20:36;;;;;;;3.13;2.00;;;;;;;;;;5071991;28;20206;-51
2022/08/23 10:23:07;;;;;;;5.13;2.10;;;;;;;;;;5071848;28;20226;-51
2022/08/23 10:25:37;;;;;;;5.93;1.80;;;;;;;;;;5071946;28;20276;-51
2022/08/23 10:30:57;;;;;;;3.10;1.60;;;;;;;;;;5071988;28;20201;-51
2022/08/23 10:33:26;;;;;;;11.13;2.20;;;;;;;;;;5071807;28;20848;-51
2022/08/23 10:35:57;;;;;;;4.80;1.63;;;;;;;;;;5071725;28;20206;-51
2022/08/23 10:38:36;;;;;;;3.57;1.83;;;;;;;;;;5071952;28;20198;-51
2022/08/23 10:41:08;;;;;;;3.27;1.80;;;;;;;;;;5071861;28;20785;-51
2022/08/23 10:43:38;;;;;;;3.27;1.60;;;;;;;;;;5071867;28;20245;-51
2022/08/23 10:46:06;;;;;;;4.80;1.60;;;;;;;;;;5071937;28;20726;-51
2022/08/23 10:48:35;;;;;;;2.17;1.40;;;;;;;;;;5071984;28;20206;-51
2022/08/23 10:51:04;;;;;;;3.40;1.30;;;;;;;;;;5071659;28;20210;-51
2022/08/23 10:53:36;;;;;;;3.07;1.43;;;;;;;;;;5071912;28;20200;-51
2022/08/23 10:56:02;;;;;;;2.70;1.17;;;;;;;;;;5071291;28;20204;-52
2022/08/23 10:58:31;;;;;;;5.80;1.23;;;;;;;;;;5070005;28;20196;-51
2022/08/23 11:00:59;;;;;;;1.63;1.40;;;;;;;;;;5072752;28;20571;-52
2022/08/23 11:03:28;;;;;;;1.77;1.20;;;;;;;;;;5074964;28;20247;-52
2022/08/23 11:06:13;;;;;;;2.27;1.37;;;;;;;;;;5074609;28;20210;-51
2022/08/23 11:08:45;;;;;;;2.57;1.20;;;;;;;;;;5074999;28;20242;-51
2022/08/23 11:11:26;;;;;;;6.97;1.40;;;;;;;;;;5075176;28;20204;-52
2022/08/23 11:13:52;;;;;;;2.50;0.90;;;;;;;;;;5073997;28;20299;-53
2022/08/23 11:16:21;;;;;;;4.43;1.10;;;;;;;;;;5074558;28;20199;-52
2022/08/23 11:18:49;;;;;;;4.70;1.50;;;;;;;;;;5074857;28;20214;-52
2022/08/23 11:21:37;;;;;;;2.67;1.23;;;;;;;;;;5075133;28;20241;-52
2022/08/23 11:24:21;;;;;;;5.97;1.50;;;;;;;;;;5068710;28;20369;-51
2022/08/23 11:27:05;;;;;;;0.90;0.87;;;;;;;;;;5074499;28;20213;-52
2022/08/23 11:29:33;;;;;;;3.53;1.33;;;;;;;;;;5074592;28;20563;-51
2022/08/23 11:32:02;;;;;;;3.63;1.30;;;;;;;;;;5074221;28;20278;-52
2022/08/23 11:34:30;;;;;;;1.50;1.10;;;;;;;;;;5074597;28;20188;-52
2022/08/23 11:37:14;;;;;;;1.47;1.20;;;;;;;;;;5074223;28;20208;-52
2022/08/23 11:39:58;;;;;;;3.97;1.57;;;;;;;;;;5074616;28;20192;-52
2022/08/23 11:42:26;;;;;;;4.93;1.63;;;;;;;;;;5074009;28;20209;-52
2022/08/23 11:44:52;;;;;;;2.30;1.43;;;;;;;;;;5074279;28;20233;-52
2022/08/23 11:47:26;;;;;;;2.97;1.70;;;;;;;;;;5074383;28;20197;-52
2022/08/23 11:50:02;;;;;;;4.50;1.40;;;;;;;;;;5074152;28;20667;-52
2022/08/23 11:52:34;;;;;;;4.10;1.30;;;;;;;;;;5074684;28;20230;-49
2022/08/23 11:55:14;;;;;;;2.03;1.23;;;;;;;;;;5073405;28;20194;-52
2022/08/23 11:57:48;;;;;;;2.20;1.10;;;;;;;;;;5074175;28;20246;-52
2022/08/23 12:00:17;;;;;;;2.77;1.50;;;;;;;;;;5074195;28;20213;-52
2022/08/23 12:02:47;;;;;;;3.47;1.30;;;;;;;;;;5073999;28;20205;-52
2022/08/23 12:05:20;;;;;;;2.07;1.10;;;;;;;;;;5074173;28;20200;-52
2022/08/23 12:07:51;;;;;;;1.60;1.20;;;;;;;;;;5073823;28;20232;-52
2022/08/23 12:10:22;;;;;;;2.17;1.20;;;;;;;;;;5073675;28;20269;-52
2022/08/23 12:13:13;;;;;;;2.73;1.23;;;;;;;;;;5072864;28;20738;-52
2022/08/23 12:16:00;;;;;;;1.90;1.20;;;;;;;;;;5072092;28;20193;-53
2022/08/23 12:18:26;;;;;;;3.17;1.27;;;;;;;;;;5073434;28;20294;-52
2022/08/23 12:20:57;;;;;;;3.63;1.40;;;;;;;;;;5073441;28;20208;-53
2022/08/23 12:23:23;;;;;;;1.50;1.10;;;;;;;;;;5073748;28;20260;-52
2022/08/23 12:26:04;;;;;;;3.63;1.33;;;;;;;;;;5073660;28;20214;-52
2022/08/23 12:28:33;;;;;;;2.83;1.20;;;;;;;;;;5074204;28;20276;-52
2022/08/23 12:31:02;;;;;;;3.23;1.43;;;;;;;;;;5073962;28;20194;-52
2022/08/23 12:33:32;;;;;;;1.40;1.30;;;;;;;;;;5073983;28;20196;-52
2022/08/23 12:36:02;;;;;;;3.20;1.40;;;;;;;;;;5073868;28;20198;-52
2022/08/23 12:38:33;;;;;;;2.37;1.40;;;;;;;;;;5073983;28;20370;-52
2022/08/23 12:41:11;;;;;;;4.63;1.40;;;;;;;;;;5073719;28;20226;-52
2022/08/23 12:43:37;;;;;;;4.10;1.30;;;;;;;;;;5073510;28;20252;-52
2022/08/23 12:46:03;;;;;;;4.23;1.40;;;;;;;;;;5073247;28;20635;-52
2022/08/23 12:48:30;;;;;;;3.33;1.40;;;;;;;;;;5073659;28;20209;-52
2022/08/23 12:50:57;;;;;;;3.33;1.43;;;;;;;;;;5073448;28;20217;-52
2022/08/23 12:53:29;;;;;;;1.57;1.20;;;;;;;;;;5073160;28;20198;-52
2022/08/23 12:56:00;;;;;;;2.47;1.57;;;;;;;;;;5072611;28;20231;-51
2022/08/23 12:58:28;;;;;;;2.20;1.33;;;;;;;;;;5072523;28;20297;-50
2022/08/23 13:00:56;;;;;;;2.47;1.17;;;;;;;;;;5072180;28;20200;-52
2022/08/23 13:03:26;;;;;;;5.37;1.50;;;;;;;;;;5072308;28;20320;-52
2022/08/23 13:05:54;;;;;;;5.50;1.67;;;;;;;;;;5072312;28;20197;-51
2022/08/23 13:08:22;;;;;;;5.23;1.30;;;;;;;;;;5070526;28;20223;-52
2022/08/23 13:10:50;;;;;;;2.37;1.30;;;;;;;;;;5072391;28;20238;-52
2022/08/23 13:13:21;;;;;;;2.47;1.30;;;;;;;;;;5072621;28;20204;-52
2022/08/23 13:15:49;;;;;;;2.40;1.27;;;;;;;;;;5072351;28;20690;-52
2022/08/23 13:18:26;;;;;;;3.03;1.63;;;;;;;;;;5072548;28;20616;-52
2022/08/23 13:21:11;;;;;;;3.03;1.37;;;;;;;;;;5072197;28;20202;-52
2022/08/23 13:23:37;;;;;;;2.97;1.53;;;;;;;;;;5071452;28;20220;-52
2022/08/23 13:26:18;;;;;;;2.47;1.37;;;;;;;;;;5072033;28;20296;-51
2022/08/23 13:31:54;;;;;;;2.13;1.30;;;;;;;;;;5150851;27;20988;-50
2022/08/23 13:34:31;;;;;;;4.47;1.50;;;;;;;;;;5150451;27;20255;-52
2022/08/23 13:36:57;;;;;;;2.33;1.20;;;;;;;;;;5150399;27;20198;-51
2022/08/23 13:39:23;;;;;;;3.03;1.37;;;;;;;;;;5150674;27;20202;-51
2022/08/23 13:41:49;;;;;;;2.77;1.60;;;;;;;;;;5150508;27;20672;-50
2022/08/23 13:44:18;;;;;;;2.40;1.40;;;;;;;;;;5150780;27;20196;-51
2022/08/23 13:46:45;;;;;;;3.07;1.50;;;;;;;;;;5150765;27;20553;-52
2022/08/23 13:49:13;;;;;;;2.07;1.40;;;;;;;;;;5150754;27;20289;-51
2022/08/23 13:51:40;;;;;;;1.77;1.30;;;;;;;;;;5150920;27;20253;-51
2022/08/23 13:54:08;;;;;;;2.97;1.43;;;;;;;;;;5150697;27;20202;-51
2022/08/23 13:56:36;;;;;;;3.23;1.60;;;;;;;;;;5150179;27;20258;-51
2022/08/23 13:59:04;;;;;;;2.87;1.30;;;;;;;;;;5150161;27;20213;-52
2022/08/23 14:01:30;;;;;;;5.50;1.43;;;;;;;;;;5150261;27;20233;-52
2022/08/23 14:03:56;;;;;;;4.97;1.50;;;;;;;;;;5150156;27;20680;-51
2022/08/23 14:06:24;;;;;;;2.30;1.60;;;;;;;;;;5148828;27;20675;-51
2022/08/23 14:08:50;;;;;;;3.93;1.40;;;;;;;;;;5150764;27;20203;-52
2022/08/23 14:11:18;;;;;;;3.10;1.40;;;;;;;;;;5150524;27;20309;-52
2022/08/23 14:13:45;;;;;;;3.13;1.47;;;;;;;;;;5150313;27;20198;-52
2022/08/23 14:16:14;;;;;;;2.50;1.47;;;;;;;;;;5150215;27;20217;-52
2022/08/23 14:18:40;;;;;;;2.80;1.50;;;;;;;;;;5150208;27;20727;-52
2022/08/23 14:21:06;;;;;;;2.07;1.40;;;;;;;;;;5150039;27;20201;-52
2022/08/23 14:23:33;;;;;;;3.03;1.53;;;;;;;;;;5150299;27;20230;-51
2022/08/23 14:25:59;;;;;;;4.03;1.50;;;;;;;;;;5150236;27;20209;-52
2022/08/23 14:28:34;;;;;;;3.47;1.50;;;;;;;;;;5150568;27;20565;-51
2022/08/23 14:31:00;;;;;;;6.13;1.43;;;;;;;;;;5147850;27;20230;-52
2022/08/23 14:33:26;;;;;;;2.97;1.47;;;;;;;;;;5149432;27;20202;-52
2022/08/23 14:35:52;;;;;;;5.37;1.50;;;;;;;;;;5149104;27;20197;-52
2022/08/23 14:38:19;;;;;;;4.60;1.57;;;;;;;;;;5148949;27;20255;-53
2022/08/23 14:40:50;;;;;;;10.13;1.80;;;;;;;;;;5149056;27;20203;-53
2022/08/23 14:43:16;;;;;;;2.10;1.30;;;;;;;;;;5135571;27;20199;-52
2022/08/23 14:45:42;;;;;;;1.50;1.30;;;;;;;;;;5135513;27;20188;-52
2022/08/23 14:48:08;;;;;;;4.30;1.30;;;;;;;;;;5134707;27;20660;-52
2022/08/23 14:50:34;;;;;;;4.13;1.70;;;;;;;;;;5135419;27;20257;-52
2022/08/23 14:53:02;;;;;;;2.37;1.30;;;;;;;;;;5135169;27;20223;-52
2022/08/23 14:55:28;;;;;;;2.73;1.40;;;;;;;;;;5135247;27;20673;-52
2022/08/23 14:57:55;;;;;;;4.13;1.80;;;;;;;;;;5135314;27;20196;-52
2022/08/23 15:00:22;;;;;;;2.73;1.53;;;;;;;;;;5134110;27;20197;-52
2022/08/23 15:02:49;;;;;;;8.57;2.00;;;;;;;;;;5134925;27;20614;-52
2022/08/23 15:05:15;;;;;;;3.00;1.43;;;;;;;;;;5134778;27;20674;-52
2022/08/23 15:07:42;;;;;;;2.27;1.23;;;;;;;;;;5135072;27;20224;-52
2022/08/23 15:10:09;;;;;;;2.50;1.40;;;;;;;;;;5131693;27;20220;-52